sensor_id;sensor_type;location;lat;lon;timestamp;pressure;altitude;pressure_sealevel;temperature;humidity
62164;BME280;48149;51.132;7.178;2023-09-19T00:01:40;98023.78;;;27.75;59.45
62164;BME280;48149;51.132;7.178;2023-09-19T00:04:06;98031.28;;;28.21;57.45
62164;BME280;48149;51.132;7.178;2023-09-19T00:06:35;98033.63;;;27.71;60.59
62164;BME280;48149;51.132;7.178;2023-09-19T00:09:01;98033.97;;;28.33;57.47
62164;BME280;48149;51.132;7.178;2023-09-19T00:11:27;98044.72;;;26.96;61.39
62164;BME280;48149;51.132;7.178;2023-09-19T00:13:54;98046.63;;;27.08;61.23
62164;BME280;48149;51.132;7.178;2023-09-19T00:16:19;98030.69;;;28.68;55.63
62164;BME280;48149;51.132;7.178;2023-09-19T00:18:45;98038.41;;;28.14;57.63
62164;BME280;48149;51.132;7.178;2023-09-19T00:21:10;98041.63;;;27.55;59.57
62164;BME280;48149;51.132;7.178;2023-09-19T00:23:35;98052.16;;;27.48;58.53
62164;BME280;48149;51.132;7.178;2023-09-19T00:26:01;98048.88;;;28.58;55.82
62164;BME280;48149;51.132;7.178;2023-09-19T00:28:26;98043.59;;;27.94;56.10
62164;BME280;48149;51.132;7.178;2023-09-19T00:30:52;98043.34;;;27.99;57.59
62164;BME280;48149;51.132;7.178;2023-09-19T00:33:19;98050.50;;;28.47;55.24
62164;BME280;48149;51.132;7.178;2023-09-19T00:35:48;98058.16;;;27.93;57.30
62164;BME280;48149;51.132;7.178;2023-09-19T00:38:13;98057.28;;;27.41;59.85
62164;BME280;48149;51.132;7.178;2023-09-19T00:40:43;98061.59;;;26.85;61.78
62164;BME280;48149;51.132;7.178;2023-09-19T00:43:08;98049.31;;;28.05;57.37
62164;BME280;48149;51.132;7.178;2023-09-19T00:45:33;98057.16;;;27.37;60.01
62164;BME280;48149;51.132;7.178;2023-09-19T00:48:01;98061.78;;;28.25;56.66
62164;BME280;48149;51.132;7.178;2023-09-19T00:50:28;98055.81;;;27.68;59.12
62164;BME280;48149;51.132;7.178;2023-09-19T00:52:54;98057.63;;;28.55;54.19
62164;BME280;48149;51.132;7.178;2023-09-19T00:55:22;98067.72;;;28.31;55.48
62164;BME280;48149;51.132;7.178;2023-09-19T00:57:48;98072.41;;;27.33;59.46
62164;BME280;48149;51.132;7.178;2023-09-19T01:00:17;98065.72;;;27.64;58.30
62164;BME280;48149;51.132;7.178;2023-09-19T01:02:45;98072.94;;;27.02;59.76
62164;BME280;48149;51.132;7.178;2023-09-19T01:05:10;98066.78;;;27.26;59.70
62164;BME280;48149;51.132;7.178;2023-09-19T01:07:37;98061.47;;;28.27;56.05
62164;BME280;48149;51.132;7.178;2023-09-19T01:10:05;98063.56;;;28.33;55.79
62164;BME280;48149;51.132;7.178;2023-09-19T01:15:15;98082.06;;;27.83;58.60
62164;BME280;48149;51.132;7.178;2023-09-19T01:17:46;98079.13;;;27.51;58.52
62164;BME280;48149;51.132;7.178;2023-09-19T01:23:36;98069.22;;;28.04;56.14
62164;BME280;48149;51.132;7.178;2023-09-19T01:31:22;98086.00;;;26.38;62.51
62164;BME280;48149;51.132;7.178;2023-09-19T01:33:59;98089.00;;;27.35;58.06
62164;BME280;48149;51.132;7.178;2023-09-19T01:36:37;98094.19;;;27.08;57.51
62164;BME280;48149;51.132;7.178;2023-09-19T01:39:07;98087.31;;;26.86;60.38
62164;BME280;48149;51.132;7.178;2023-09-19T01:44:36;98090.75;;;28.04;55.92
62164;BME280;48149;51.132;7.178;2023-09-19T01:47:08;98093.22;;;28.09;54.44
62164;BME280;48149;51.132;7.178;2023-09-19T01:49:42;98108.13;;;27.34;58.41
62164;BME280;48149;51.132;7.178;2023-09-19T01:54:51;98103.47;;;27.79;55.52
62164;BME280;48149;51.132;7.178;2023-09-19T01:57:27;98106.78;;;28.00;55.58
62164;BME280;48149;51.132;7.178;2023-09-19T01:59:57;98116.00;;;27.75;55.24
62164;BME280;48149;51.132;7.178;2023-09-19T02:02:24;98112.81;;;27.13;57.54
62164;BME280;48149;51.132;7.178;2023-09-19T02:04:50;98108.44;;;28.29;53.05
62164;BME280;48149;51.132;7.178;2023-09-19T02:07:16;98106.91;;;28.04;54.41
62164;BME280;48149;51.132;7.178;2023-09-19T02:09:41;98104.00;;;27.97;54.74
62164;BME280;48149;51.132;7.178;2023-09-19T02:12:08;98109.28;;;28.05;54.46
62164;BME280;48149;51.132;7.178;2023-09-19T02:14:33;98114.69;;;27.45;54.39
62164;BME280;48149;51.132;7.178;2023-09-19T02:17:01;98112.25;;;28.28;53.94
62164;BME280;48149;51.132;7.178;2023-09-19T02:19:27;98128.69;;;27.50;56.38
62164;BME280;48149;51.132;7.178;2023-09-19T02:21:53;98122.63;;;27.53;56.49
62164;BME280;48149;51.132;7.178;2023-09-19T02:24:18;98136.53;;;26.36;58.62
62164;BME280;48149;51.132;7.178;2023-09-19T02:26:44;98130.50;;;26.81;58.27
62164;BME280;48149;51.132;7.178;2023-09-19T02:29:09;98132.59;;;26.75;58.78
62164;BME280;48149;51.132;7.178;2023-09-19T02:31:37;98128.25;;;27.73;54.14
62164;BME280;48149;51.132;7.178;2023-09-19T02:34:03;98127.78;;;27.83;54.04
62164;BME280;48149;51.132;7.178;2023-09-19T02:36:30;98130.66;;;26.96;56.53
62164;BME280;48149;51.132;7.178;2023-09-19T02:38:55;98141.75;;;26.74;57.05
62164;BME280;48149;51.132;7.178;2023-09-19T02:41:21;98149.38;;;26.51;57.25
62164;BME280;48149;51.132;7.178;2023-09-19T02:43:46;98155.06;;;27.36;52.93
62164;BME280;48149;51.132;7.178;2023-09-19T02:46:12;98143.13;;;27.46;52.90
62164;BME280;48149;51.132;7.178;2023-09-19T02:48:38;98146.44;;;26.98;53.67
62164;BME280;48149;51.132;7.178;2023-09-19T02:51:03;98136.00;;;28.38;50.74
62164;BME280;48149;51.132;7.178;2023-09-19T02:53:29;98147.63;;;29.10;47.54
62164;BME280;48149;51.132;7.178;2023-09-19T02:55:56;98153.31;;;27.52;53.56
62164;BME280;48149;51.132;7.178;2023-09-19T02:58:21;98146.34;;;28.36;50.94
62164;BME280;48149;51.132;7.178;2023-09-19T03:00:47;98150.03;;;27.35;51.95
62164;BME280;48149;51.132;7.178;2023-09-19T03:03:14;98151.19;;;27.46;49.75
62164;BME280;48149;51.132;7.178;2023-09-19T03:05:41;98158.25;;;27.75;49.95
62164;BME280;48149;51.132;7.178;2023-09-19T03:08:12;98152.25;;;28.54;45.96
62164;BME280;48149;51.132;7.178;2023-09-19T03:10:39;98161.50;;;27.23;51.13
62164;BME280;48149;51.132;7.178;2023-09-19T03:13:05;98158.25;;;27.87;48.45
62164;BME280;48149;51.132;7.178;2023-09-19T03:15:30;98159.41;;;26.63;51.96
62164;BME280;48149;51.132;7.178;2023-09-19T03:17:56;98169.78;;;26.85;51.36
62164;BME280;48149;51.132;7.178;2023-09-19T03:20:22;98173.50;;;27.71;49.55
62164;BME280;48149;51.132;7.178;2023-09-19T03:22:48;98176.22;;;26.93;49.78
62164;BME280;48149;51.132;7.178;2023-09-19T03:25:13;98185.47;;;27.16;52.46
62164;BME280;48149;51.132;7.178;2023-09-19T03:27:39;98182.25;;;27.92;49.33
62164;BME280;48149;51.132;7.178;2023-09-19T03:30:05;98184.28;;;27.95;50.28
62164;BME280;48149;51.132;7.178;2023-09-19T03:32:37;98191.78;;;28.01;49.22
62164;BME280;48149;51.132;7.178;2023-09-19T03:35:03;98184.91;;;28.40;47.40
62164;BME280;48149;51.132;7.178;2023-09-19T03:37:30;98183.88;;;28.05;48.97
62164;BME280;48149;51.132;7.178;2023-09-19T03:39:55;98182.09;;;27.07;52.12
62164;BME280;48149;51.132;7.178;2023-09-19T03:42:21;98182.38;;;26.93;48.96
62164;BME280;48149;51.132;7.178;2023-09-19T03:44:50;98176.22;;;26.93;49.93
62164;BME280;48149;51.132;7.178;2023-09-19T03:47:17;98176.09;;;26.69;51.88
62164;BME280;48149;51.132;7.178;2023-09-19T03:49:43;98172.34;;;26.11;54.10
62164;BME280;48149;51.132;7.178;2023-09-19T03:52:08;98174.75;;;27.85;47.96
62164;BME280;48149;51.132;7.178;2023-09-19T03:54:33;98177.00;;;26.52;51.28
62164;BME280;48149;51.132;7.178;2023-09-19T03:56:58;98161.00;;;26.76;50.85
62164;BME280;48149;51.132;7.178;2023-09-19T03:59:23;98166.69;;;27.28;50.97
62164;BME280;48149;51.132;7.178;2023-09-19T04:01:49;98159.66;;;26.91;51.15
62164;BME280;48149;51.132;7.178;2023-09-19T04:04:15;98164.09;;;26.45;53.71
62164;BME280;48149;51.132;7.178;2023-09-19T04:06:40;98165.53;;;27.50;48.40
62164;BME280;48149;51.132;7.178;2023-09-19T04:09:05;98173.84;;;27.81;48.62
62164;BME280;48149;51.132;7.178;2023-09-19T04:11:32;98165.97;;;27.52;48.49
62164;BME280;48149;51.132;7.178;2023-09-19T04:13:58;98167.47;;;27.98;47.00
62164;BME280;48149;51.132;7.178;2023-09-19T04:16:23;98169.69;;;27.27;49.84
62164;BME280;48149;51.132;7.178;2023-09-19T04:18:48;98176.50;;;27.12;49.31
62164;BME280;48149;51.132;7.178;2023-09-19T04:21:13;98175.56;;;26.55;50.95
62164;BME280;48149;51.132;7.178;2023-09-19T04:23:39;98181.97;;;26.62;52.14
62164;BME280;48149;51.132;7.178;2023-09-19T04:26:04;98175.28;;;27.10;51.06
62164;BME280;48149;51.132;7.178;2023-09-19T04:28:30;98172.34;;;26.61;53.62
62164;BME280;48149;51.132;7.178;2023-09-19T04:30:56;98167.38;;;26.30;52.72
62164;BME280;48149;51.132;7.178;2023-09-19T04:33:21;98176.72;;;27.52;50.55
62164;BME280;48149;51.132;7.178;2023-09-19T04:35:48;98167.09;;;26.23;54.83
62164;BME280;48149;51.132;7.178;2023-09-19T04:38:13;98181.28;;;25.65;56.67
62164;BME280;48149;51.132;7.178;2023-09-19T04:40:39;98176.06;;;25.98;54.48
62164;BME280;48149;51.132;7.178;2023-09-19T04:43:06;98176.78;;;26.78;52.62
62164;BME280;48149;51.132;7.178;2023-09-19T04:45:32;98179.31;;;26.12;54.94
62164;BME280;48149;51.132;7.178;2023-09-19T04:47:57;98182.25;;;26.90;52.39
62164;BME280;48149;51.132;7.178;2023-09-19T04:50:23;98195.38;;;26.41;54.92
62164;BME280;48149;51.132;7.178;2023-09-19T04:52:50;98191.63;;;26.63;53.43
62164;BME280;48149;51.132;7.178;2023-09-19T04:55:16;98188.41;;;25.53;57.19
62164;BME280;48149;51.132;7.178;2023-09-19T04:57:49;98193.19;;;26.43;53.82
62164;BME280;48149;51.132;7.178;2023-09-19T05:00:17;98184.53;;;26.09;55.57
62164;BME280;48149;51.132;7.178;2023-09-19T05:02:43;98188.53;;;25.94;55.46
62164;BME280;48149;51.132;7.178;2023-09-19T05:05:09;98196.69;;;26.35;53.52
62164;BME280;48149;51.132;7.178;2023-09-19T05:07:42;98197.09;;;26.67;52.48
62164;BME280;48149;51.132;7.178;2023-09-19T05:10:08;98194.69;;;26.53;53.27
62164;BME280;48149;51.132;7.178;2023-09-19T05:12:36;98197.25;;;26.20;54.77
62164;BME280;48149;51.132;7.178;2023-09-19T05:15:05;98198.56;;;25.76;55.14
62164;BME280;48149;51.132;7.178;2023-09-19T05:17:32;98198.16;;;26.54;52.36
62164;BME280;48149;51.132;7.178;2023-09-19T05:19:57;98206.22;;;27.28;50.07
62164;BME280;48149;51.132;7.178;2023-09-19T05:22:23;98214.94;;;26.92;52.12
62164;BME280;48149;51.132;7.178;2023-09-19T05:24:49;98221.25;;;27.74;48.10
62164;BME280;48149;51.132;7.178;2023-09-19T05:27:14;98224.03;;;25.99;54.33
62164;BME280;48149;51.132;7.178;2023-09-19T05:29:44;98217.28;;;26.23;53.49
62164;BME280;48149;51.132;7.178;2023-09-19T05:32:12;98228.03;;;26.93;51.54
62164;BME280;48149;51.132;7.178;2023-09-19T05:34:38;98238.53;;;26.57;53.06
62164;BME280;48149;51.132;7.178;2023-09-19T05:37:04;98243.53;;;25.71;54.26
62164;BME280;48149;51.132;7.178;2023-09-19T05:39:30;98241.38;;;26.02;53.72
62164;BME280;48149;51.132;7.178;2023-09-19T05:41:55;98247.13;;;26.50;53.16
62164;BME280;48149;51.132;7.178;2023-09-19T05:44:22;98246.53;;;26.45;50.23
62164;BME280;48149;51.132;7.178;2023-09-19T05:46:47;98240.47;;;25.89;54.19
62164;BME280;48149;51.132;7.178;2023-09-19T05:49:13;98254.09;;;27.67;49.67
62164;BME280;48149;51.132;7.178;2023-09-19T05:51:38;98258.41;;;26.65;51.93
62164;BME280;48149;51.132;7.178;2023-09-19T05:54:03;98256.03;;;26.42;52.56
62164;BME280;48149;51.132;7.178;2023-09-19T05:56:30;98271.91;;;26.47;52.29
62164;BME280;48149;51.132;7.178;2023-09-19T05:58:56;98272.78;;;28.45;46.09
62164;BME280;48149;51.132;7.178;2023-09-19T06:01:21;98270.19;;;28.36;45.29
62164;BME280;48149;51.132;7.178;2023-09-19T06:03:47;98265.84;;;27.75;47.69
62164;BME280;48149;51.132;7.178;2023-09-19T06:06:12;98266.97;;;26.87;49.63
62164;BME280;48149;51.132;7.178;2023-09-19T06:08:40;98265.03;;;27.29;49.96
62164;BME280;48149;51.132;7.178;2023-09-19T06:11:05;98284.38;;;26.23;52.34
62164;BME280;48149;51.132;7.178;2023-09-19T06:13:34;98287.63;;;27.82;48.48
62164;BME280;48149;51.132;7.178;2023-09-19T06:15:59;98286.28;;;26.81;50.21
62164;BME280;48149;51.132;7.178;2023-09-19T06:18:29;98298.16;;;26.50;50.77
62164;BME280;48149;51.132;7.178;2023-09-19T06:20:58;98301.66;;;27.34;49.27
62164;BME280;48149;51.132;7.178;2023-09-19T06:23:24;98308.69;;;27.26;49.34
62164;BME280;48149;51.132;7.178;2023-09-19T06:25:52;98302.41;;;27.01;50.24
62164;BME280;48149;51.132;7.178;2023-09-19T06:28:18;98303.41;;;26.97;49.82
62164;BME280;48149;51.132;7.178;2023-09-19T06:30:48;98295.84;;;27.11;50.06
62164;BME280;48149;51.132;7.178;2023-09-19T06:33:14;98302.00;;;27.32;49.19
62164;BME280;48149;51.132;7.178;2023-09-19T06:35:39;98296.78;;;27.15;49.88
62164;BME280;48149;51.132;7.178;2023-09-19T06:38:04;98296.66;;;26.91;50.29
62164;BME280;48149;51.132;7.178;2023-09-19T06:40:30;98301.44;;;26.77;50.40
62164;BME280;48149;51.132;7.178;2023-09-19T06:42:56;98300.41;;;25.85;52.20
62164;BME280;48149;51.132;7.178;2023-09-19T06:45:21;98302.00;;;27.32;48.76
62164;BME280;48149;51.132;7.178;2023-09-19T06:47:47;98307.38;;;27.12;49.95
62164;BME280;48149;51.132;7.178;2023-09-19T06:50:15;98304.97;;;27.19;49.64
62164;BME280;48149;51.132;7.178;2023-09-19T06:52:40;98292.00;;;26.71;52.13
62164;BME280;48149;51.132;7.178;2023-09-19T06:55:06;98283.94;;;26.71;51.58
62164;BME280;48149;51.132;7.178;2023-09-19T06:57:31;98304.13;;;27.06;49.67
62164;BME280;48149;51.132;7.178;2023-09-19T06:59:57;98291.41;;;27.15;49.04
62164;BME280;48149;51.132;7.178;2023-09-19T07:02:22;98301.63;;;27.01;51.53
62164;BME280;48149;51.132;7.178;2023-09-19T07:04:47;98300.84;;;26.50;51.99
62164;BME280;48149;51.132;7.178;2023-09-19T07:07:13;98294.97;;;26.48;52.38
62164;BME280;48149;51.132;7.178;2023-09-19T07:09:39;98309.03;;;27.25;50.78
62164;BME280;48149;51.132;7.178;2023-09-19T07:12:04;98294.91;;;26.36;53.36
62164;BME280;48149;51.132;7.178;2023-09-19T07:14:29;98295.97;;;27.15;51.29
62164;BME280;48149;51.132;7.178;2023-09-19T07:16:55;98306.84;;;27.60;48.40
62164;BME280;48149;51.132;7.178;2023-09-19T07:19:20;98310.78;;;27.41;49.97
62164;BME280;48149;51.132;7.178;2023-09-19T07:21:45;98307.53;;;28.14;48.90
62164;BME280;48149;51.132;7.178;2023-09-19T07:24:12;98306.09;;;26.68;50.75
62164;BME280;48149;51.132;7.178;2023-09-19T07:26:38;98302.03;;;26.91;51.76
62164;BME280;48149;51.132;7.178;2023-09-19T07:29:05;98313.47;;;27.41;49.64
62164;BME280;48149;51.132;7.178;2023-09-19T07:31:33;98316.88;;;28.77;45.88
62164;BME280;48149;51.132;7.178;2023-09-19T07:33:59;98316.06;;;28.28;47.50
62164;BME280;48149;51.132;7.178;2023-09-19T07:36:24;98321.63;;;27.98;46.74
62164;BME280;48149;51.132;7.178;2023-09-19T07:38:49;98324.88;;;27.18;47.92
62164;BME280;48149;51.132;7.178;2023-09-19T07:41:15;98329.19;;;27.84;47.16
62164;BME280;48149;51.132;7.178;2023-09-19T07:43:40;98337.03;;;28.34;48.11
62164;BME280;48149;51.132;7.178;2023-09-19T07:46:06;98329.19;;;27.51;48.48
62164;BME280;48149;51.132;7.178;2023-09-19T07:48:32;98332.72;;;27.64;47.76
62164;BME280;48149;51.132;7.178;2023-09-19T07:51:01;98335.13;;;28.59;46.38
62164;BME280;48149;51.132;7.178;2023-09-19T07:53:26;98340.16;;;27.05;49.01
62164;BME280;48149;51.132;7.178;2023-09-19T07:55:52;98332.63;;;27.19;48.88
62164;BME280;48149;51.132;7.178;2023-09-19T07:58:26;98325.13;;;27.66;49.54
62164;BME280;48149;51.132;7.178;2023-09-19T08:00:51;98337.81;;;28.59;44.63
62164;BME280;48149;51.132;7.178;2023-09-19T08:03:16;98336.75;;;28.03;45.68
62164;BME280;48149;51.132;7.178;2023-09-19T08:05:42;98340.28;;;29.52;43.36
62164;BME280;48149;51.132;7.178;2023-09-19T08:08:08;98333.84;;;27.42;49.41
62164;BME280;48149;51.132;7.178;2023-09-19T08:10:33;98335.56;;;27.06;48.51
62164;BME280;48149;51.132;7.178;2023-09-19T08:13:00;98343.34;;;28.50;45.09
62164;BME280;48149;51.132;7.178;2023-09-19T08:15:27;98329.53;;;29.40;43.38
62164;BME280;48149;51.132;7.178;2023-09-19T08:17:52;98347.63;;;27.20;49.54
62164;BME280;48149;51.132;7.178;2023-09-19T08:20:17;98337.28;;;28.17;46.97
62164;BME280;48149;51.132;7.178;2023-09-19T08:22:50;98341.78;;;29.38;44.05
62164;BME280;48149;51.132;7.178;2023-09-19T08:25:17;98344.59;;;27.42;48.82
62164;BME280;48149;51.132;7.178;2023-09-19T08:27:43;98340.41;;;28.19;46.35
62164;BME280;48149;51.132;7.178;2023-09-19T08:30:12;98343.69;;;27.92;46.01
62164;BME280;48149;51.132;7.178;2023-09-19T08:32:38;98336.06;;;28.75;44.84
62164;BME280;48149;51.132;7.178;2023-09-19T08:35:03;98348.03;;;29.02;44.76
62164;BME280;48149;51.132;7.178;2023-09-19T08:37:29;98349.19;;;28.89;44.67
62164;BME280;48149;51.132;7.178;2023-09-19T08:39:54;98350.13;;;29.60;42.36
62164;BME280;48149;51.132;7.178;2023-09-19T08:42:19;98346.00;;;30.38;41.95
62164;BME280;48149;51.132;7.178;2023-09-19T08:44:46;98347.94;;;28.86;43.87
62164;BME280;48149;51.132;7.178;2023-09-19T08:47:14;98365.78;;;28.30;43.93
62164;BME280;48149;51.132;7.178;2023-09-19T08:52:42;98365.63;;;29.24;41.54
62164;BME280;48149;51.132;7.178;2023-09-19T08:55:07;98360.72;;;27.96;45.50
62164;BME280;48149;51.132;7.178;2023-09-19T08:57:36;98381.50;;;28.65;44.75
62164;BME280;48149;51.132;7.178;2023-09-19T09:00:08;98353.88;;;28.43;45.71
62164;BME280;48149;51.132;7.178;2023-09-19T09:02:39;98364.38;;;30.79;40.50
62164;BME280;48149;51.132;7.178;2023-09-19T09:05:06;98351.91;;;29.69;42.08
62164;BME280;48149;51.132;7.178;2023-09-19T09:07:32;98359.66;;;30.60;40.28
62164;BME280;48149;51.132;7.178;2023-09-19T09:09:59;98361.44;;;29.66;41.46
62164;BME280;48149;51.132;7.178;2023-09-19T09:12:25;98358.00;;;30.72;39.91
62164;BME280;48149;51.132;7.178;2023-09-19T09:14:51;98359.91;;;32.66;36.38
62164;BME280;48149;51.132;7.178;2023-09-19T09:17:17;98358.69;;;33.16;35.19
62164;BME280;48149;51.132;7.178;2023-09-19T09:19:48;98358.59;;;32.34;35.81
62164;BME280;48149;51.132;7.178;2023-09-19T09:22:13;98348.13;;;31.91;37.73
62164;BME280;48149;51.132;7.178;2023-09-19T09:25:00;98354.19;;;31.84;35.91
62164;BME280;48149;51.132;7.178;2023-09-19T09:27:28;98351.84;;;31.06;37.43
62164;BME280;48149;51.132;7.178;2023-09-19T09:29:54;98351.50;;;31.84;35.16
62164;BME280;48149;51.132;7.178;2023-09-19T09:34:52;98353.13;;;32.80;33.71
62164;BME280;48149;51.132;7.178;2023-09-19T09:37:18;98357.97;;;31.99;33.37
62164;BME280;48149;51.132;7.178;2023-09-19T09:39:56;98348.47;;;34.03;31.67
62164;BME280;48149;51.132;7.178;2023-09-19T09:42:28;98360.56;;;33.09;32.54
62164;BME280;48149;51.132;7.178;2023-09-19T09:45:18;98328.16;;;32.18;33.46
62164;BME280;48149;51.132;7.178;2023-09-19T09:47:48;98343.94;;;32.88;32.71
62164;BME280;48149;51.132;7.178;2023-09-19T09:50:23;98327.25;;;33.75;31.99
62164;BME280;48149;51.132;7.178;2023-09-19T09:52:54;98337.41;;;31.75;34.06
62164;BME280;48149;51.132;7.178;2023-09-19T09:55:20;98360.00;;;31.44;34.06
62164;BME280;48149;51.132;7.178;2023-09-19T09:57:46;98348.09;;;31.10;33.88
62164;BME280;48149;51.132;7.178;2023-09-19T10:00:14;98343.59;;;31.18;34.18
62164;BME280;48149;51.132;7.178;2023-09-19T10:02:45;98345.38;;;31.10;34.29
62164;BME280;48149;51.132;7.178;2023-09-19T10:05:12;98347.88;;;31.19;34.95
62164;BME280;48149;51.132;7.178;2023-09-19T10:08:09;98347.56;;;29.12;36.81
62164;BME280;48149;51.132;7.178;2023-09-19T10:10:38;98350.28;;;31.24;33.65
62164;BME280;48149;51.132;7.178;2023-09-19T10:13:06;98346.94;;;30.61;36.39
62164;BME280;48149;51.132;7.178;2023-09-19T10:15:32;98342.47;;;31.38;35.34
62164;BME280;48149;51.132;7.178;2023-09-19T10:18:00;98351.06;;;31.25;33.19
62164;BME280;48149;51.132;7.178;2023-09-19T10:20:26;98334.59;;;30.44;35.34
62164;BME280;48149;51.132;7.178;2023-09-19T10:23:00;98349.72;;;33.42;31.82
62164;BME280;48149;51.132;7.178;2023-09-19T10:25:26;98341.84;;;33.63;30.74
62164;BME280;48149;51.132;7.178;2023-09-19T10:27:54;98329.38;;;34.40;29.88
62164;BME280;48149;51.132;7.178;2023-09-19T10:30:20;98334.53;;;33.08;31.40
62164;BME280;48149;51.132;7.178;2023-09-19T10:32:47;98344.88;;;32.99;30.98
62164;BME280;48149;51.132;7.178;2023-09-19T10:35:19;98332.97;;;33.07;31.55
62164;BME280;48149;51.132;7.178;2023-09-19T10:37:45;98366.84;;;33.46;29.77
62164;BME280;48149;51.132;7.178;2023-09-19T10:40:14;98337.25;;;33.08;30.54
62164;BME280;48149;51.132;7.178;2023-09-19T10:42:41;98328.97;;;34.96;29.48
62164;BME280;48149;51.132;7.178;2023-09-19T10:45:07;98339.22;;;31.48;33.24
62164;BME280;48149;51.132;7.178;2023-09-19T10:47:39;98325.50;;;32.70;30.67
62164;BME280;48149;51.132;7.178;2023-09-19T10:50:05;98333.41;;;32.83;32.37
62164;BME280;48149;51.132;7.178;2023-09-19T10:52:30;98327.44;;;33.26;29.75
62164;BME280;48149;51.132;7.178;2023-09-19T10:54:58;98315.78;;;33.96;29.66
62164;BME280;48149;51.132;7.178;2023-09-19T10:57:26;98331.00;;;32.51;30.19
62164;BME280;48149;51.132;7.178;2023-09-19T11:00:08;98323.13;;;34.32;28.61
62164;BME280;48149;51.132;7.178;2023-09-19T11:05:33;98339.16;;;36.45;26.68
62164;BME280;48149;51.132;7.178;2023-09-19T11:07:59;98339.59;;;33.39;30.54
62164;BME280;48149;51.132;7.178;2023-09-19T11:10:44;98320.44;;;36.44;27.35
62164;BME280;48149;51.132;7.178;2023-09-19T11:13:27;98329.38;;;36.79;27.18
62164;BME280;48149;51.132;7.178;2023-09-19T11:21:39;98328.59;;;34.39;28.40
62164;BME280;48149;51.132;7.178;2023-09-19T11:26:44;98322.59;;;33.75;29.44
62164;BME280;48149;51.132;7.178;2023-09-19T11:29:25;98326.41;;;35.13;28.58
62164;BME280;48149;51.132;7.178;2023-09-19T11:31:50;98322.00;;;36.52;26.56
62164;BME280;48149;51.132;7.178;2023-09-19T11:37:00;98338.69;;;35.72;26.67
62164;BME280;48149;51.132;7.178;2023-09-19T11:39:26;98315.19;;;33.39;30.35
62164;BME280;48149;51.132;7.178;2023-09-19T11:41:52;98302.81;;;33.75;29.65
62164;BME280;48149;51.132;7.178;2023-09-19T11:46:55;98315.22;;;34.13;30.73
62164;BME280;48149;51.132;7.178;2023-09-19T11:49:27;98308.94;;;33.68;31.77
62164;BME280;48149;51.132;7.178;2023-09-19T11:51:56;98317.97;;;34.20;30.58
62164;BME280;48149;51.132;7.178;2023-09-19T11:54:22;98318.22;;;35.13;30.50
62164;BME280;48149;51.132;7.178;2023-09-19T11:56:50;98321.75;;;35.17;29.58
62164;BME280;48149;51.132;7.178;2023-09-19T11:59:22;98317.69;;;34.32;30.78
62164;BME280;48149;51.132;7.178;2023-09-19T12:01:51;98320.91;;;31.61;34.13
62164;BME280;48149;51.132;7.178;2023-09-19T12:04:22;98324.34;;;31.81;34.71
62164;BME280;48149;51.132;7.178;2023-09-19T12:06:58;98325.59;;;33.34;32.70
62164;BME280;48149;51.132;7.178;2023-09-19T12:09:24;98321.16;;;35.70;29.32
62164;BME280;48149;51.132;7.178;2023-09-19T12:11:50;98319.91;;;33.46;31.82
62164;BME280;48149;51.132;7.178;2023-09-19T12:14:25;98323.47;;;33.20;33.02
62164;BME280;48149;51.132;7.178;2023-09-19T12:16:57;98325.47;;;34.37;31.98
62164;BME280;48149;51.132;7.178;2023-09-19T12:19:23;98319.97;;;32.63;34.23
62164;BME280;48149;51.132;7.178;2023-09-19T12:24:22;98314.22;;;33.58;31.22
62164;BME280;48149;51.132;7.178;2023-09-19T12:26:51;98319.78;;;38.61;26.01
62164;BME280;48149;51.132;7.178;2023-09-19T12:29:18;98304.03;;;36.75;26.52
62164;BME280;48149;51.132;7.178;2023-09-19T12:31:50;98295.94;;;36.12;29.13
62164;BME280;48149;51.132;7.178;2023-09-19T12:34:25;98282.22;;;35.62;28.48
62164;BME280;48149;51.132;7.178;2023-09-19T12:37:03;98279.47;;;35.48;27.71
62164;BME280;48149;51.132;7.178;2023-09-19T12:39:29;98284.63;;;36.59;25.80
62164;BME280;48149;51.132;7.178;2023-09-19T12:41:54;98288.28;;;39.47;23.93
62164;BME280;48149;51.132;7.178;2023-09-19T12:44:20;98290.28;;;40.24;23.22
62164;BME280;48149;51.132;7.178;2023-09-19T12:46:45;98291.56;;;37.75;24.38
62164;BME280;48149;51.132;7.178;2023-09-19T12:51:45;98285.72;;;40.60;22.21
62164;BME280;48149;51.132;7.178;2023-09-19T12:54:11;98285.47;;;37.54;23.80
62164;BME280;48149;51.132;7.178;2023-09-19T12:56:40;98305.25;;;36.67;23.99
62164;BME280;48149;51.132;7.178;2023-09-19T12:59:09;98281.09;;;36.48;24.25
62164;BME280;48149;51.132;7.178;2023-09-19T13:01:38;98284.13;;;39.06;22.76
62164;BME280;48149;51.132;7.178;2023-09-19T13:04:15;98296.97;;;36.96;24.43
62164;BME280;48149;51.132;7.178;2023-09-19T13:06:44;98280.38;;;39.26;22.42
62164;BME280;48149;51.132;7.178;2023-09-19T13:09:11;98274.41;;;37.71;24.06
62164;BME280;48149;51.132;7.178;2023-09-19T13:11:37;98278.81;;;37.55;24.23
62164;BME280;48149;51.132;7.178;2023-09-19T13:16:59;98274.22;;;38.00;22.99
62164;BME280;48149;51.132;7.178;2023-09-19T13:19:35;98270.19;;;36.52;24.63
62164;BME280;48149;51.132;7.178;2023-09-19T13:22:01;98273.13;;;38.38;23.49
62164;BME280;48149;51.132;7.178;2023-09-19T13:24:27;98254.34;;;39.11;22.89
62164;BME280;48149;51.132;7.178;2023-09-19T13:26:53;98266.78;;;37.38;23.74
62164;BME280;48149;51.132;7.178;2023-09-19T13:29:18;98276.16;;;39.15;22.42
62164;BME280;48149;51.132;7.178;2023-09-19T13:31:47;98270.44;;;37.10;24.52
62164;BME280;48149;51.132;7.178;2023-09-19T13:34:12;98271.34;;;36.47;24.41
62164;BME280;48149;51.132;7.178;2023-09-19T13:36:40;98266.41;;;39.97;22.22
62164;BME280;48149;51.132;7.178;2023-09-19T13:39:07;98267.59;;;39.13;23.53
62164;BME280;48149;51.132;7.178;2023-09-19T13:41:34;98269.56;;;37.97;23.27
62164;BME280;48149;51.132;7.178;2023-09-19T13:44:01;98269.84;;;34.78;26.04
62164;BME280;48149;51.132;7.178;2023-09-19T13:46:26;98259.28;;;33.31;28.36
62164;BME280;48149;51.132;7.178;2023-09-19T13:48:52;98270.19;;;34.15;27.11